Time;durP1;ratioP1;P1;durP2;ratioP2;P2;SDS_P1;SDS_P2;PMS_P1;PMS_P2;Temp;Humidity;BMP_temperature;BMP_pressure;BME280_temperature;BME280_humidity;BME280_pressure;Samples;Min_cycle;Max_cycle;Signal;HPM_P1;HPM_P2
2020/12/02 00:00:27;;;;;;;17.57;11.97;;;8.90;60.90;;;;;;5061686;28;20192;-42
2020/12/02 00:03:02;;;;;;;16.87;13.40;;;8.90;60.90;;;;;;5057584;28;20445;-42
2020/12/02 00:05:30;;;;;;;19.10;12.87;;;8.90;60.90;;;;;;5066346;28;20663;-42
2020/12/02 00:08:06;;;;;;;18.00;12.87;;;8.90;60.90;;;;;;5067130;28;20490;-42
2020/12/02 00:10:32;;;;;;;16.50;13.47;;;8.90;61.00;;;;;;5064455;28;20846;-42
2020/12/02 00:12:57;;;;;;;15.77;12.20;;;8.90;60.90;;;;;;5066380;28;20504;-42
2020/12/02 00:15:23;;;;;;;16.77;12.87;;;8.90;61.00;;;;;;5061254;28;20674;-42
2020/12/02 00:17:55;;;;;;;15.23;11.50;;;8.80;61.10;;;;;;5065449;28;20195;-42
2020/12/02 00:20:21;;;;;;;15.77;11.73;;;8.90;61.30;;;;;;5054400;28;20446;-42
2020/12/02 00:22:46;;;;;;;14.47;11.47;;;8.90;61.40;;;;;;5066411;28;20468;-42
2020/12/02 00:25:12;;;;;;;15.63;11.50;;;8.90;61.40;;;;;;5062330;28;20553;-42
2020/12/02 00:27:37;;;;;;;17.20;12.53;;;8.90;61.20;;;;;;5068597;28;20196;-42
2020/12/02 00:30:10;;;;;;;19.13;14.00;;;8.90;61.10;;;;;;5056786;28;20195;-42
2020/12/02 00:32:38;;;;;;;18.83;12.87;;;8.90;60.80;;;;;;5061011;28;20202;-42
2020/12/02 00:35:13;;;;;;;21.43;14.23;;;8.90;60.60;;;;;;5056608;28;20442;-42
2020/12/02 00:37:39;;;;;;;23.90;14.13;;;8.90;60.50;;;;;;5066668;28;21074;-42
2020/12/02 00:40:05;;;;;;;19.50;12.80;;;8.90;60.40;;;;;;5065801;28;20518;-42
2020/12/02 00:42:30;;;;;;;20.60;13.53;;;8.90;60.50;;;;;;5059407;28;20215;-42
2020/12/02 00:44:56;;;;;;;22.00;13.10;;;8.90;60.60;;;;;;5064098;28;20469;-42
2020/12/02 00:47:24;;;;;;;19.73;13.67;;;8.90;60.50;;;;;;5069765;28;20191;-42
2020/12/02 00:49:54;;;;;;;17.70;12.67;;;8.90;60.40;;;;;;5064766;28;20227;-41
2020/12/02 00:52:20;;;;;;;20.60;12.80;;;8.90;60.40;;;;;;5057989;28;20923;-42
2020/12/02 00:54:46;;;;;;;19.97;13.40;;;8.90;60.40;;;;;;5053066;28;20450;-43
2020/12/02 01:00:17;;;;;;;19.40;12.07;;;8.90;60.20;;;;;;5060480;28;20469;-43
2020/12/02 01:03:02;;;;;;;18.33;12.60;;;8.90;60.30;;;;;;5060809;28;20445;-43
2020/12/02 01:05:29;;;;;;;17.13;12.77;;;8.90;60.40;;;;;;5058212;28;20207;-41
2020/12/02 01:08:11;;;;;;;16.67;12.33;;;8.90;60.30;;;;;;5053771;28;20497;-43
2020/12/02 01:10:38;;;;;;;16.70;12.00;;;8.90;60.30;;;;;;5058249;28;20546;-43
2020/12/02 01:13:04;;;;;;;18.30;12.07;;;8.90;60.20;;;;;;5060948;28;20446;-43
2020/12/02 01:15:30;;;;;;;16.80;12.07;;;8.90;60.30;;;;;;5064894;28;20441;-43
2020/12/02 01:18:22;;;;;;;17.27;11.97;;;8.90;60.40;;;;;;5067128;28;20540;-43
2020/12/02 01:21:22;;;;;;;16.07;11.80;;;8.90;60.40;;;;;;5057484;28;20207;-43
2020/12/02 01:23:54;;;;;;;16.83;10.97;;;8.90;60.60;;;;;;5063394;28;20442;-43
2020/12/02 01:26:21;;;;;;;15.93;12.03;;;8.80;60.50;;;;;;5081108;28;20809;-43
2020/12/02 01:28:48;;;;;;;17.53;12.40;;;8.80;60.60;;;;;;5061895;28;20517;-42
2020/12/02 01:31:14;;;;;;;17.50;12.50;;;8.90;60.70;;;;;;5052257;28;20454;-43
2020/12/02 01:33:39;;;;;;;14.97;11.17;;;8.90;60.70;;;;;;5063863;28;20893;-43
2020/12/02 01:36:07;;;;;;;16.97;11.70;;;8.90;60.80;;;;;;5056456;28;20266;-43
2020/12/02 01:38:40;;;;;;;15.17;11.47;;;8.90;60.70;;;;;;5070489;28;20191;-43
2020/12/02 01:41:08;;;;;;;15.73;10.73;;;8.90;60.60;;;;;;5056660;28;20446;-43
2020/12/02 01:43:34;;;;;;;13.50;10.53;;;8.90;60.50;;;;;;5056417;28;20811;-43
2020/12/02 01:46:13;;;;;;;15.73;11.07;;;8.90;60.60;;;;;;5060016;28;20447;-43
2020/12/02 01:48:56;;;;;;;16.50;12.00;;;8.90;60.70;;;;;;5058266;28;20695;-42
2020/12/02 01:51:36;;;;;;;25.10;13.00;;;8.90;60.70;;;;;;5054825;28;20447;-43
2020/12/02 01:54:23;;;;;;;21.63;13.93;;;8.90;60.70;;;;;;5057523;28;20538;-43
2020/12/02 01:57:18;;;;;;;22.43;13.83;;;8.90;60.70;;;;;;5054150;28;20941;-42
2020/12/02 02:00:02;;;;;;;21.03;13.67;;;8.90;60.70;;;;;;5045765;28;20458;-43
2020/12/02 02:02:49;;;;;;;22.80;14.53;;;8.90;60.80;;;;;;5055949;28;20561;-43
2020/12/02 02:05:23;;;;;;;19.33;13.40;;;8.90;60.70;;;;;;5055260;28;20451;-43
2020/12/02 02:07:49;;;;;;;16.77;12.57;;;8.90;60.60;;;;;;5069022;28;20473;-43
2020/12/02 02:10:22;;;;;;;22.33;14.53;;;8.90;60.80;;;;;;5065413;28;20528;-43
2020/12/02 02:13:17;;;;;;;25.60;14.70;;;8.90;60.80;;;;;;5064603;28;20184;-43
2020/12/02 02:16:03;;;;;;;21.10;13.73;;;8.90;60.80;;;;;;4993541;28;20593;-43
2020/12/02 02:18:30;;;;;;;17.30;12.90;;;8.90;60.90;;;;;;5065734;28;20804;-43
2020/12/02 02:21:05;;;;;;;19.23;13.90;;;8.80;60.10;;;;;;5072216;28;20537;-43
2020/12/02 02:23:30;;;;;;;16.47;12.80;;;8.80;60.40;;;;;;5067864;28;20877;-43
2020/12/02 02:26:11;;;;;;;17.70;13.20;;;8.80;60.80;;;;;;5065311;28;20536;-43
2020/12/02 02:28:41;;;;;;;16.20;11.90;;;8.80;60.70;;;;;;5060758;28;20311;-43
2020/12/02 02:31:13;;;;;;;17.23;12.50;;;8.90;60.50;;;;;;5056606;28;20431;-43
2020/12/02 02:33:40;;;;;;;16.53;12.47;;;8.90;60.20;;;;;;5068155;28;20438;-42
2020/12/02 02:36:10;;;;;;;19.17;13.40;;;8.70;59.90;;;;;;5067901;28;20426;-41
2020/12/02 02:38:37;;;;;;;17.60;12.80;;;8.80;60.30;;;;;;5063235;28;20793;-43
2020/12/02 02:41:03;;;;;;;17.67;13.40;;;8.80;60.20;;;;;;5063398;28;20442;-43
2020/12/02 02:43:28;;;;;;;17.07;11.60;;;8.80;60.20;;;;;;5067620;28;20537;-43
2020/12/02 02:45:54;;;;;;;18.00;12.57;;;8.90;60.20;;;;;;5063464;28;20250;-43
2020/12/02 02:48:19;;;;;;;16.10;12.10;;;8.90;61.00;;;;;;5070266;28;20349;-42
2020/12/02 02:50:45;;;;;;;17.97;13.10;;;8.90;60.30;;;;;;5057201;28;20749;-43
2020/12/02 02:53:18;;;;;;;18.10;11.40;;;8.90;60.20;;;;;;5066245;28;20215;-41
2020/12/02 02:55:44;;;;;;;17.30;12.67;;;8.80;60.10;;;;;;5066968;28;20613;-41
2020/12/02 02:58:09;;;;;;;18.00;12.00;;;8.70;60.10;;;;;;5061390;28;20443;-41
2020/12/02 03:00:36;;;;;;;17.10;12.27;;;8.80;60.30;;;;;;5058418;28;20443;-41
2020/12/02 03:03:02;;;;;;;17.90;11.80;;;8.60;60.10;;;;;;5053802;28;20196;-41
2020/12/02 03:05:28;;;;;;;15.47;11.60;;;8.50;60.70;;;;;;5062557;28;21574;-41
2020/12/02 03:08:03;;;;;;;17.30;12.20;;;8.50;61.10;;;;;;5066286;28;20314;-41
2020/12/02 03:10:31;;;;;;;18.67;12.53;;;8.50;61.00;;;;;;5068822;28;20844;-41
2020/12/02 03:13:01;;;;;;;18.47;11.77;;;8.50;60.70;;;;;;5055685;28;20439;-43
2020/12/02 03:15:27;;;;;;;15.40;11.20;;;8.50;60.30;;;;;;5059072;28;20438;-41
2020/12/02 03:17:53;;;;;;;16.07;11.70;;;8.40;60.70;;;;;;5068050;28;20441;-42
2020/12/02 03:20:40;;;;;;;16.10;12.03;;;8.50;60.90;;;;;;5071845;28;20230;-42
2020/12/02 03:23:10;;;;;;;15.73;11.03;;;8.20;60.90;;;;;;5053504;28;20925;-42
2020/12/02 03:25:38;;;;;;;19.87;12.37;;;8.10;61.80;;;;;;5068345;28;20448;-41
2020/12/02 03:28:04;;;;;;;18.10;11.07;;;8.30;61.80;;;;;;5067351;28;20496;-41
2020/12/02 03:30:30;;;;;;;14.80;11.37;;;8.10;61.70;;;;;;5069959;28;20529;-41
2020/12/02 03:32:56;;;;;;;17.97;11.83;;;8.20;62.00;;;;;;5070240;28;20211;-41
2020/12/02 03:35:22;;;;;;;15.13;10.87;;;8.30;61.20;;;;;;5065021;28;20434;-41
2020/12/02 03:37:48;;;;;;;13.40;10.90;;;8.40;61.30;;;;;;5061349;28;20203;-41
2020/12/02 03:40:14;;;;;;;16.10;11.30;;;8.50;61.10;;;;;;5065668;28;20438;-41
2020/12/02 03:42:39;;;;;;;14.77;10.40;;;8.50;60.90;;;;;;5058882;28;20203;-41
2020/12/02 03:45:07;;;;;;;13.43;10.23;;;8.50;60.40;;;;;;5070484;28;20219;-41
2020/12/02 03:47:33;;;;;;;13.73;10.23;;;8.30;60.60;;;;;;5054728;28;20230;-41
2020/12/02 03:49:58;;;;;;;13.40;9.63;;;8.20;60.70;;;;;;5062300;28;20486;-41
2020/12/02 03:52:24;;;;;;;11.10;8.57;;;8.20;61.10;;;;;;5068824;28;20193;-41
2020/12/02 03:54:49;;;;;;;15.77;10.77;;;8.20;61.10;;;;;;5063074;28;20196;-41
2020/12/02 03:57:15;;;;;;;10.20;9.13;;;8.20;61.30;;;;;;5053487;28;20259;-41
2020/12/02 03:59:40;;;;;;;11.80;9.67;;;8.30;61.40;;;;;;5063623;28;20195;-41
2020/12/02 04:02:06;;;;;;;14.07;10.80;;;8.40;61.30;;;;;;5063534;28;20675;-42
2020/12/02 04:04:33;;;;;;;12.20;10.30;;;8.50;61.20;;;;;;5065823;28;20715;-41
2020/12/02 04:06:58;;;;;;;14.57;9.50;;;8.50;61.20;;;;;;5057264;28;20280;-42
2020/12/02 04:09:24;;;;;;;12.37;9.50;;;8.60;61.30;;;;;;5065492;28;20518;-42
2020/12/02 04:11:49;;;;;;;13.07;9.73;;;8.60;61.30;;;;;;5067349;28;20196;-41
2020/12/02 04:14:15;;;;;;;13.00;10.20;;;8.60;61.00;;;;;;5070670;28;20267;-41
2020/12/02 04:16:41;;;;;;;12.80;10.13;;;8.60;60.80;;;;;;5061668;28;20546;-41
2020/12/02 04:19:06;;;;;;;12.37;9.50;;;8.70;60.70;;;;;;5056435;28;20242;-41
2020/12/02 04:21:32;;;;;;;11.50;9.10;;;8.70;60.60;;;;;;5068936;28;20192;-42
2020/12/02 04:23:58;;;;;;;11.43;9.20;;;8.80;60.50;;;;;;5063914;28;20784;-42
2020/12/02 04:26:25;;;;;;;16.13;11.47;;;8.70;60.20;;;;;;5058705;28;20242;-41
2020/12/02 04:28:51;;;;;;;14.03;10.10;;;8.70;60.20;;;;;;5064047;28;20572;-41
2020/12/02 04:31:19;;;;;;;13.60;10.33;;;8.70;60.10;;;;;;5059584;28;20522;-42
2020/12/02 04:33:45;;;;;;;13.80;9.97;;;8.70;60.10;;;;;;5058353;28;20442;-41
2020/12/02 04:36:12;;;;;;;14.10;11.10;;;8.70;59.90;;;;;;5064003;28;20449;-41
2020/12/02 04:38:37;;;;;;;17.57;10.10;;;8.60;59.90;;;;;;5056857;28;20443;-41
2020/12/02 04:41:14;;;;;;;14.20;9.60;;;8.60;59.90;;;;;;5057019;28;20445;-41
2020/12/02 04:43:43;;;;;;;12.17;9.97;;;8.60;59.80;;;;;;5064057;28;20278;-41
2020/12/02 04:46:14;;;;;;;13.13;9.57;;;8.70;59.90;;;;;;5059481;28;20818;-42
2020/12/02 04:48:41;;;;;;;14.80;10.20;;;8.60;60.00;;;;;;5058382;28;20633;-41
2020/12/02 04:51:30;;;;;;;12.60;9.57;;;8.70;60.20;;;;;;5060103;28;20450;-42
2020/12/02 04:53:57;;;;;;;12.00;9.40;;;8.70;60.10;;;;;;5068735;28;20457;-41
2020/12/02 04:56:25;;;;;;;14.50;9.80;;;8.70;60.20;;;;;;5066853;28;20442;-41
2020/12/02 04:58:52;;;;;;;13.60;10.03;;;8.70;60.10;;;;;;5062869;28;21090;-41
2020/12/02 05:01:27;;;;;;;13.50;9.60;;;8.70;60.00;;;;;;5062849;28;21252;-41
2020/12/02 05:04:04;;;;;;;12.47;9.23;;;8.70;60.20;;;;;;5055200;28;20526;-41
2020/12/02 05:06:32;;;;;;;12.47;9.50;;;8.70;59.70;;;;;;5053308;28;20490;-41
2020/12/02 05:09:25;;;;;;;11.57;9.60;;;8.40;60.00;;;;;;5063844;28;20897;-41
2020/12/02 05:12:10;;;;;;;13.73;9.93;;;8.50;60.40;;;;;;5052827;28;20856;-42
2020/12/02 05:14:40;;;;;;;11.60;9.00;;;8.60;59.80;;;;;;5063844;28;20453;-41
2020/12/02 05:17:18;;;;;;;14.43;9.00;;;8.50;59.80;;;;;;5066618;28;20443;-41
2020/12/02 05:20:03;;;;;;;11.33;8.00;;;8.30;60.50;;;;;;5065570;28;20455;-41
2020/12/02 05:22:34;;;;;;;13.47;10.53;;;8.30;60.80;;;;;;5053358;28;20451;-42
2020/12/02 05:25:00;;;;;;;14.03;10.50;;;8.30;60.40;;;;;;5061736;28;20423;-42
2020/12/02 05:27:31;;;;;;;11.90;9.30;;;8.30;60.00;;;;;;5056121;28;20450;-42
2020/12/02 05:30:18;;;;;;;10.60;8.97;;;8.40;60.10;;;;;;5061192;28;20281;-41
2020/12/02 05:33:07;;;;;;;14.97;10.80;;;8.40;60.10;;;;;;5055254;28;20446;-41
2020/12/02 05:35:34;;;;;;;14.47;9.77;;;8.40;60.00;;;;;;5058724;28;21299;-42
2020/12/02 05:38:03;;;;;;;15.37;9.23;;;8.30;60.20;;;;;;5067229;28;20442;-42
2020/12/02 05:40:32;;;;;;;10.27;9.00;;;8.30;60.30;;;;;;5071250;28;20457;-42
2020/12/02 05:43:05;;;;;;;11.03;8.90;;;8.10;60.20;;;;;;5067217;28;20451;-41
2020/12/02 05:45:37;;;;;;;11.30;8.60;;;8.10;60.80;;;;;;5065873;28;20434;-42
2020/12/02 05:48:10;;;;;;;11.23;8.80;;;7.90;61.00;;;;;;5067686;28;20547;-41
2020/12/02 05:50:38;;;;;;;16.00;9.30;;;7.80;61.40;;;;;;5070432;28;20446;-41
2020/12/02 05:53:20;;;;;;;12.37;9.23;;;7.80;61.90;;;;;;5057386;28;20528;-41
2020/12/02 05:55:47;;;;;;;15.23;9.70;;;7.80;61.90;;;;;;5062415;28;20568;-41
2020/12/02 05:58:17;;;;;;;12.70;9.10;;;7.90;61.60;;;;;;5064877;28;20445;-41
2020/12/02 06:00:42;;;;;;;12.73;9.03;;;8.00;61.10;;;;;;5070250;28;20442;-41
2020/12/02 06:03:14;;;;;;;12.50;8.60;;;7.80;61.20;;;;;;5071658;28;20456;-42
2020/12/02 06:05:40;;;;;;;14.43;9.40;;;7.90;61.40;;;;;;5065802;28;20193;-42
2020/12/02 06:08:07;;;;;;;15.90;9.17;;;7.80;61.20;;;;;;5057364;28;20474;-42
2020/12/02 06:10:41;;;;;;;9.80;8.23;;;7.90;61.70;;;;;;5062776;28;20198;-42
2020/12/02 06:13:16;;;;;;;10.77;8.77;;;7.90;62.10;;;;;;5067108;28;20453;-42
2020/12/02 06:15:42;;;;;;;10.97;7.53;;;8.30;63.70;;;;;;5068461;28;20449;-42
2020/12/02 06:18:27;;;;;;;12.00;8.67;;;8.70;64.80;;;;;;5063766;28;20469;-42
2020/12/02 06:20:53;;;;;;;12.47;9.17;;;9.20;64.30;;;;;;5060701;28;20207;-42
2020/12/02 06:23:19;;;;;;;12.07;9.40;;;9.50;62.30;;;;;;5063419;28;20514;-42
2020/12/02 06:25:54;;;;;;;10.47;8.50;;;9.80;60.90;;;;;;5056103;28;20855;-42
2020/12/02 06:28:40;;;;;;;10.87;8.33;;;10.10;59.20;;;;;;5058550;28;20640;-42
2020/12/02 06:31:12;;;;;;;10.83;8.50;;;10.30;58.00;;;;;;5047907;28;20500;-42
2020/12/02 06:33:40;;;;;;;9.03;7.30;;;10.50;57.30;;;;;;5061902;28;20449;-42
2020/12/02 06:36:18;;;;;;;9.10;7.20;;;10.60;56.30;;;;;;5055775;28;20494;-42
2020/12/02 06:38:49;;;;;;;13.63;8.57;;;10.50;54.60;;;;;;5061530;28;20461;-42
2020/12/02 06:41:27;;;;;;;10.10;8.90;;;10.50;54.90;;;;;;5064341;28;20438;-42
2020/12/02 06:44:03;;;;;;;14.77;9.07;;;10.40;54.50;;;;;;5060247;28;20446;-42
2020/12/02 06:46:40;;;;;;;14.20;9.87;;;10.50;54.00;;;;;;5068723;28;20860;-42
2020/12/02 06:49:06;;;;;;;13.20;10.40;;;10.50;54.10;;;;;;5063302;28;20485;-42
2020/12/02 06:51:32;;;;;;;13.30;10.07;;;10.60;54.10;;;;;;5061920;28;20839;-42
2020/12/02 06:53:58;;;;;;;14.23;9.77;;;10.80;54.30;;;;;;5060461;28;20443;-42
2020/12/02 06:56:24;;;;;;;13.63;9.70;;;10.90;54.00;;;;;;5065426;28;20199;-42
2020/12/02 06:59:06;;;;;;;13.97;9.20;;;11.00;53.60;;;;;;5064001;28;20184;-42
2020/12/02 07:01:33;;;;;;;15.67;10.90;;;11.10;53.40;;;;;;5060677;28;20949;-42
2020/12/02 07:04:04;;;;;;;11.70;8.50;;;11.20;53.10;;;;;;5064339;28;20457;-42
2020/12/02 07:06:31;;;;;;;12.30;9.80;;;11.20;52.70;;;;;;5068733;28;20496;-42
2020/12/02 07:09:16;;;;;;;14.60;9.97;;;11.20;53.00;;;;;;5062236;28;20518;-42
2020/12/02 07:11:57;;;;;;;10.80;8.30;;;11.20;52.80;;;;;;5069480;28;20461;-42
2020/12/02 07:14:32;;;;;;;12.97;9.10;;;11.10;52.50;;;;;;5069373;28;20524;-42
2020/12/02 07:16:59;;;;;;;13.23;9.30;;;11.00;52.80;;;;;;5061575;28;20439;-42
2020/12/02 07:19:30;;;;;;;14.67;10.47;;;10.90;52.80;;;;;;5065337;28;20461;-42
2020/12/02 07:21:59;;;;;;;13.20;9.33;;;10.80;53.00;;;;;;5065689;28;20859;-42
2020/12/02 07:24:36;;;;;;;12.00;9.00;;;10.80;53.00;;;;;;5057706;28;20954;-42
2020/12/02 07:27:04;;;;;;;15.20;10.60;;;10.60;53.00;;;;;;5061201;28;20442;-42
2020/12/02 07:29:29;;;;;;;14.00;10.07;;;10.50;53.00;;;;;;5063945;28;20531;-42
2020/12/02 07:31:59;;;;;;;14.27;10.10;;;10.60;53.30;;;;;;5062525;28;20431;-42
2020/12/02 07:34:25;;;;;;;12.30;9.27;;;10.40;53.80;;;;;;5072626;28;20271;-42
2020/12/02 07:37:04;;;;;;;11.53;9.63;;;10.40;54.00;;;;;;5059235;28;20422;-42
2020/12/02 07:39:30;;;;;;;12.77;9.37;;;10.50;53.80;;;;;;5070307;28;20772;-42
2020/12/02 07:42:17;;;;;;;15.50;10.77;;;10.40;53.70;;;;;;5066482;28;20422;-42
2020/12/02 07:44:56;;;;;;;14.00;10.23;;;10.20;53.80;;;;;;5072469;28;20779;-42
2020/12/02 07:47:22;;;;;;;13.63;10.00;;;10.10;54.20;;;;;;5060425;28;20430;-42
2020/12/02 07:50:03;;;;;;;14.50;10.90;;;10.00;54.50;;;;;;5071808;28;20490;-42
2020/12/02 07:52:40;;;;;;;14.23;9.37;;;9.90;55.90;;;;;;5069899;28;20206;-42
2020/12/02 07:55:10;;;;;;;14.10;10.80;;;9.90;56.00;;;;;;5072053;28;20951;-42
2020/12/02 07:57:36;;;;;;;15.93;10.47;;;10.10;54.90;;;;;;5067345;28;20454;-42
2020/12/02 08:00:16;;;;;;;16.70;10.83;;;10.00;54.40;;;;;;5062949;28;20435;-42
2020/12/02 08:02:44;;;;;;;14.50;10.17;;;10.00;54.60;;;;;;5065650;28;20434;-43
2020/12/02 08:05:34;;;;;;;14.10;9.23;;;9.70;55.70;;;;;;5061841;28;20435;-41
2020/12/02 08:08:00;;;;;;;15.40;10.87;;;9.70;55.60;;;;;;5063474;28;20478;-42
2020/12/02 08:10:31;;;;;;;12.90;10.73;;;9.60;55.90;;;;;;5072388;28;20718;-42
2020/12/02 08:12:58;;;;;;;18.53;11.43;;;9.70;56.10;;;;;;5067737;28;20470;-42
2020/12/02 08:15:24;;;;;;;15.33;10.70;;;9.70;55.80;;;;;;5066691;28;20434;-42
2020/12/02 08:18:21;;;;;;;18.03;10.50;;;9.70;56.00;;;;;;5069751;28;20442;-42
2020/12/02 08:20:47;;;;;;;17.10;11.70;;;9.70;56.20;;;;;;5059947;28;20226;-42
2020/12/02 08:23:23;;;;;;;21.47;12.00;;;9.70;56.30;;;;;;5058360;28;20419;-42
2020/12/02 08:26:19;;;;;;;15.70;10.30;;;9.60;56.20;;;;;;5052465;28;20196;-42
2020/12/02 08:28:46;;;;;;;17.00;13.00;;;9.60;56.30;;;;;;5063642;28;20486;-42
2020/12/02 08:31:26;;;;;;;16.40;10.70;;;9.50;56.20;;;;;;5063291;28;20442;-42
2020/12/02 08:34:11;;;;;;;16.37;10.30;;;9.50;56.70;;;;;;5055818;28;20458;-43
2020/12/02 08:36:48;;;;;;;16.97;10.83;;;9.60;55.50;;;;;;5051526;28;20457;-42
2020/12/02 08:39:28;;;;;;;15.80;10.60;;;9.70;55.10;;;;;;5061029;28;20434;-42
2020/12/02 08:41:53;;;;;;;19.80;11.47;;;9.80;55.50;;;;;;5054954;28;20446;-42
2020/12/02 08:44:19;;;;;;;19.60;12.63;;;9.90;55.50;;;;;;5062681;28;20437;-42
2020/12/02 08:46:55;;;;;;;19.83;12.33;;;9.90;55.40;;;;;;5061993;28;20199;-42
2020/12/02 08:49:28;;;;;;;19.77;12.97;;;9.90;55.90;;;;;;5055174;28;20219;-42
2020/12/02 08:51:53;;;;;;;17.03;11.73;;;10.10;54.90;;;;;;5061722;28;20438;-42
2020/12/02 08:54:22;;;;;;;17.50;11.40;;;10.30;54.60;;;;;;5061034;28;20484;-41
2020/12/02 08:56:48;;;;;;;18.50;12.43;;;10.40;54.20;;;;;;5053664;28;20193;-42
2020/12/02 08:59:14;;;;;;;21.00;13.20;;;10.50;53.70;;;;;;5057993;28;20430;-41
2020/12/02 09:01:40;;;;;;;19.57;11.97;;;10.50;53.10;;;;;;5065005;28;20462;-42
2020/12/02 09:04:06;;;;;;;18.63;10.70;;;10.40;53.00;;;;;;5061146;28;20463;-41
2020/12/02 09:06:32;;;;;;;15.07;10.57;;;10.30;53.60;;;;;;5065238;28;20945;-42
2020/12/02 09:08:58;;;;;;;19.40;11.40;;;10.20;53.60;;;;;;5067062;28;20520;-43
2020/12/02 09:11:35;;;;;;;19.83;13.50;;;10.20;52.90;;;;;;5064899;28;20191;-42
2020/12/02 09:14:03;;;;;;;16.97;10.90;;;10.30;52.80;;;;;;5054708;28;20444;-43
2020/12/02 09:16:34;;;;;;;18.00;10.63;;;10.20;52.70;;;;;;5060229;28;20427;-42
2020/12/02 09:19:02;;;;;;;20.50;12.40;;;10.10;52.80;;;;;;5067606;28;20438;-41
2020/12/02 09:21:28;;;;;;;19.03;11.53;;;10.00;53.30;;;;;;5053250;28;20438;-42
2020/12/02 09:23:55;;;;;;;19.60;12.40;;;10.10;53.50;;;;;;5052795;28;20781;-42
2020/12/02 09:26:23;;;;;;;18.70;10.97;;;10.10;53.30;;;;;;5060674;28;20441;-42
2020/12/02 09:28:49;;;;;;;19.83;11.97;;;10.10;52.90;;;;;;5068958;28;20980;-42
2020/12/02 09:31:17;;;;;;;17.63;11.97;;;10.10;52.90;;;;;;5065003;28;20441;-41
2020/12/02 09:33:43;;;;;;;19.50;11.90;;;10.20;52.70;;;;;;5069731;28;20449;-42
2020/12/02 09:36:08;;;;;;;18.07;11.90;;;10.20;52.40;;;;;;5060062;28;20921;-42
2020/12/02 09:38:34;;;;;;;18.70;11.07;;;10.20;52.50;;;;;;5067334;28;20203;-42
2020/12/02 09:41:34;;;;;;;19.67;12.17;;;10.20;52.50;;;;;;5068717;28;20196;-42
2020/12/02 09:44:18;;;;;;;20.23;12.03;;;10.40;52.50;;;;;;5049399;28;20254;-41
2020/12/02 09:46:50;;;;;;;17.30;10.77;;;10.50;52.40;;;;;;5061414;28;20926;-42
2020/12/02 09:49:15;;;;;;;16.83;10.60;;;10.60;52.70;;;;;;5061690;28;20546;-42
2020/12/02 09:51:41;;;;;;;18.60;11.60;;;10.80;52.60;;;;;;5064044;28;20430;-41
2020/12/02 09:54:11;;;;;;;21.40;12.97;;;10.80;52.10;;;;;;5067799;28;20526;-41
2020/12/02 09:56:42;;;;;;;24.03;13.13;;;10.80;51.70;;;;;;5067374;28;20191;-41
2020/12/02 09:59:09;;;;;;;20.23;12.90;;;10.90;51.70;;;;;;5065152;28;20501;-41
2020/12/02 10:01:49;;;;;;;20.43;11.80;;;10.90;51.80;;;;;;5054054;28;20510;-41
2020/12/02 10:04:33;;;;;;;16.50;11.43;;;11.00;52.20;;;;;;5060932;28;20464;-41
2020/12/02 10:07:28;;;;;;;16.93;11.13;;;11.10;51.70;;;;;;5057667;28;20485;-41
2020/12/02 10:10:08;;;;;;;17.50;10.07;;;11.10;50.80;;;;;;5057997;28;20520;-41
2020/12/02 10:12:45;;;;;;;14.80;10.27;;;10.90;50.10;;;;;;5061038;28;20485;-41
2020/12/02 10:15:29;;;;;;;18.13;11.77;;;10.80;50.40;;;;;;5055073;28;20449;-41
2020/12/02 10:18:53;;;;;;;16.60;10.27;;;10.70;50.50;;;;;;5064430;28;20952;-41
2020/12/02 10:21:40;;;;;;;14.63;10.33;;;10.60;51.00;;;;;;4981055;28;20919;-43
2020/12/02 10:24:50;;;;;;;17.90;11.00;;;10.50;51.30;;;;;;4989956;28;20457;-42
2020/12/02 10:27:31;;;;;;;20.10;11.87;;;10.50;51.00;;;;;;5049550;28;20446;-41
2020/12/02 10:30:17;;;;;;;19.20;11.40;;;10.50;51.20;;;;;;5071570;28;20518;-42
2020/12/02 10:33:11;;;;;;;21.03;12.67;;;10.40;51.10;;;;;;5059902;28;20453;-42
2020/12/02 10:35:39;;;;;;;21.77;11.50;;;10.20;51.10;;;;;;5069080;28;20434;-42
2020/12/02 10:38:10;;;;;;;19.80;11.70;;;10.20;51.60;;;;;;5064612;28;20815;-42
2020/12/02 10:40:41;;;;;;;16.50;11.70;;;10.20;51.80;;;;;;5060814;28;20567;-42
2020/12/02 10:43:15;;;;;;;16.87;11.20;;;10.20;51.70;;;;;;5053141;28;20475;-42
2020/12/02 10:45:43;;;;;;;18.30;11.90;;;10.00;51.60;;;;;;5063831;28;20443;-42
2020/12/02 10:48:39;;;;;;;17.30;11.07;;;9.80;52.90;;;;;;5066821;28;20474;-42
2020/12/02 10:51:10;;;;;;;17.97;10.97;;;9.80;53.20;;;;;;5069454;28;20448;-42
2020/12/02 10:53:36;;;;;;;19.03;11.07;;;9.90;53.60;;;;;;5069860;28;20427;-42
2020/12/02 10:56:02;;;;;;;19.00;11.40;;;9.90;53.50;;;;;;5061404;28;20441;-42
2020/12/02 10:58:29;;;;;;;17.30;11.40;;;10.10;52.10;;;;;;5064972;28;20259;-42
2020/12/02 11:01:06;;;;;;;18.43;11.27;;;10.20;52.00;;;;;;5066273;28;20196;-42
2020/12/02 11:03:35;;;;;;;17.50;11.33;;;10.20;51.50;;;;;;5070146;28;20457;-42
2020/12/02 11:06:10;;;;;;;18.77;11.77;;;10.20;51.60;;;;;;5066160;28;21012;-42
2020/12/02 11:08:47;;;;;;;19.90;12.33;;;10.10;51.70;;;;;;5057486;28;20477;-42
2020/12/02 11:11:21;;;;;;;20.40;11.53;;;10.10;51.60;;;;;;5063540;28;20477;-42
2020/12/02 11:14:12;;;;;;;21.70;12.87;;;10.00;51.50;;;;;;5064358;28;20481;-42
2020/12/02 11:16:37;;;;;;;21.60;13.40;;;10.00;51.60;;;;;;5058563;28;20450;-42
2020/12/02 11:19:18;;;;;;;22.97;12.93;;;9.90;52.70;;;;;;5069736;28;20442;-42
2020/12/02 11:21:59;;;;;;;25.60;14.33;;;9.80;52.60;;;;;;5055417;28;20339;-42
2020/12/02 11:24:31;;;;;;;23.10;12.00;;;9.80;52.80;;;;;;5068817;28;20513;-42
2020/12/02 11:26:56;;;;;;;22.20;12.63;;;9.90;53.20;;;;;;5071042;28;20441;-42
2020/12/02 11:29:23;;;;;;;21.73;12.13;;;9.90;52.70;;;;;;5068522;28;20498;-42
2020/12/02 11:31:48;;;;;;;26.10;13.20;;;9.90;52.80;;;;;;5058792;28;20713;-42
2020/12/02 11:34:40;;;;;;;23.30;13.80;;;9.90;52.40;;;;;;5060592;28;20443;-41
2020/12/02 11:37:10;;;;;;;25.53;14.50;;;9.90;52.30;;;;;;5060613;28;20196;-42
2020/12/02 11:39:50;;;;;;;26.57;13.93;;;9.80;52.70;;;;;;5067463;28;20885;-41
2020/12/02 11:42:45;;;;;;;25.00;13.20;;;9.80;52.50;;;;;;5056538;28;20438;-41
2020/12/02 11:45:17;;;;;;;24.50;13.00;;;9.60;52.90;;;;;;5056691;28;20853;-41
2020/12/02 11:47:53;;;;;;;23.10;12.17;;;9.40;53.10;;;;;;5065978;28;20449;-41
2020/12/02 11:50:29;;;;;;;23.47;12.57;;;9.40;53.40;;;;;;5057888;28;20471;-41
2020/12/02 11:52:57;;;;;;;25.80;12.83;;;9.30;53.50;;;;;;5058029;28;20437;-41
2020/12/02 11:55:23;;;;;;;20.90;13.93;;;9.20;53.50;;;;;;5061426;28;20431;-41
2020/12/02 11:57:54;;;;;;;23.50;11.37;;;9.20;53.70;;;;;;5061678;28;20444;-41
2020/12/02 12:00:20;;;;;;;22.00;12.40;;;9.00;53.60;;;;;;5064375;28;20570;-41
2020/12/02 12:03:13;;;;;;;22.43;13.57;;;8.90;54.10;;;;;;5070778;28;20434;-41
2020/12/02 12:05:57;;;;;;;23.67;14.53;;;8.80;54.70;;;;;;5059689;28;20828;-41
2020/12/02 12:08:28;;;;;;;26.20;14.40;;;8.50;55.10;;;;;;5062524;28;20466;-41
2020/12/02 12:10:56;;;;;;;22.30;13.70;;;8.30;55.80;;;;;;5063560;28;20446;-41
2020/12/02 12:13:36;;;;;;;28.10;13.00;;;8.40;56.20;;;;;;5054123;28;20771;-41
2020/12/02 12:16:31;;;;;;;20.40;12.97;;;8.40;55.80;;;;;;5058661;28;20804;-41
2020/12/02 12:19:20;;;;;;;21.83;11.80;;;8.30;55.60;;;;;;5058204;28;20434;-41
2020/12/02 12:22:07;;;;;;;21.20;11.67;;;8.40;55.60;;;;;;5059185;28;20459;-41
2020/12/02 12:24:32;;;;;;;22.37;11.80;;;8.20;56.00;;;;;;5056539;28;20435;-43
2020/12/02 12:26:58;;;;;;;24.00;12.93;;;8.20;56.10;;;;;;5059925;28;20956;-41
2020/12/02 12:29:24;;;;;;;22.43;13.70;;;8.00;56.30;;;;;;5057508;28;20224;-41
2020/12/02 12:32:03;;;;;;;20.27;11.87;;;7.90;56.60;;;;;;5063495;28;20209;-41
2020/12/02 12:34:35;;;;;;;22.20;12.93;;;8.00;56.70;;;;;;5069608;28;20203;-41
2020/12/02 12:37:04;;;;;;;24.60;13.00;;;8.30;56.50;;;;;;5061275;28;20443;-41
2020/12/02 12:39:38;;;;;;;18.70;11.20;;;8.20;55.80;;;;;;5066961;28;20429;-41
2020/12/02 12:42:04;;;;;;;23.67;11.67;;;8.20;55.50;;;;;;5065898;28;20426;-41
2020/12/02 12:44:35;;;;;;;20.10;11.80;;;8.10;55.10;;;;;;5061582;28;20462;-41
2020/12/02 12:47:22;;;;;;;22.60;13.73;;;8.00;55.40;;;;;;5059463;28;20199;-41
2020/12/02 12:49:48;;;;;;;23.40;12.70;;;8.00;55.50;;;;;;5066443;28;20577;-41
2020/12/02 12:52:17;;;;;;;20.03;11.67;;;8.10;55.20;;;;;;5068772;28;20528;-41
2020/12/02 12:54:43;;;;;;;20.47;13.10;;;8.00;55.10;;;;;;5067070;28;20449;-41
2020/12/02 12:57:14;;;;;;;19.20;11.17;;;8.00;55.30;;;;;;5050743;28;20447;-41
2020/12/02 12:59:40;;;;;;;20.77;11.93;;;8.00;55.10;;;;;;5066472;28;20268;-41
2020/12/02 13:02:15;;;;;;;17.70;10.50;;;8.10;55.20;;;;;;5065232;28;20445;-41
2020/12/02 13:04:41;;;;;;;20.10;12.90;;;8.10;55.00;;;;;;5067023;28;20441;-41